Bob Sikes Airport
KCEW : now visible

Airfield :











YOU CAN JOIN US ON...

 
LOGIN :

Register | Disclaimer

   EN    FR    IT 

 









Legend :    VFR   Marginal VFR   IFR   Intensive IFR   Very Intensive IFR
Visi :
Ceiling :
>= 8 km
>= 3000ft
5 to 8 km
1000 to 3000 ft
1500m to 5 km
500 to 1000 ft
800 to 1500m
200 to 500 ft
< 800m
< 200 ft
Symbols :   Thunderstorms  Fog  Heavy snow  Heavy precipitations  Wind > 20 kt






- Airport Elevation : 213 ft


KCEW - Bob Sikes

CURRENT METAR :
  • 221753Z AUTO 00000KT 10SM -RA BKN002 OVC060 17/16 A2995 RMK AO2 SLP140 P0002 6//// T01720161 10172 20156 58013

EXPIRED METARs :
  • 221710Z AUTO 00000KT 9SM -RA BKN003 OVC060 17/16 A2997 RMK AO2 P0001 T01670156
  • 221653Z AUTO 00000KT 3SM -RA BR FEW003 BKN049 OVC060 16/16 A2998 RMK AO2 SLP151 P0002 T01610156
  • 221637Z AUTO 00000KT 2SM RA BR SCT003 BKN040 OVC055 16/16 A2999 RMK AO2 P0002 T01610156
  • 221611Z AUTO 00000KT 1 3/4SM RA BR FEW003 BKN037 OVC060 16/16 A3000 RMK AO2 P0001 T01610156
  • 221553Z AUTO 00000KT 5SM -RA BR FEW006 OVC055 16/15 A2999 RMK AO2 SLP154 P0002 T01610150
  • 221527Z AUTO 09004KT 2 1/2SM -RA BR BKN042 OVC060 16/14 A2998 RMK AO2 P0001 T01560144
  • 221506Z AUTO 08004KT 4SM -RA BR OVC039 16/14 A2998 RMK AO2 P0001 T01560144

TAF N/A
KZJX FIR / North America



MET'MAP, your aeronautical weather chart ! - Copyright ORBIFLY December 2007 - Disclaimer

ORBIFLY MET'MAP TEAM :

Programming & Development : Alexandra Zaïnal
Concept & original design : Baudouin d'Aumeries
Assistance for programming : Marc-Olivier Méhu
Technical & hardware support : Manuel Goepfert

Contact : metmap@orbifly.com




SOURCES & CREDITS :

   NOAA       Earth
Advisory